sensor_id;sensor_type;location;lat;lon;timestamp;pressure;altitude;pressure_sealevel;temperature;humidity
6347;BME280;3206;42.666;23.600;2022-08-11T00:02:23;95319.41;;;20.04;100.00
6347;BME280;3206;42.666;23.600;2022-08-11T00:04:53;95317.41;;;20.01;100.00
6347;BME280;3206;42.666;23.600;2022-08-11T00:07:21;95321.34;;;19.93;100.00
6347;BME280;3206;42.666;23.600;2022-08-11T00:09:50;95316.69;;;19.94;100.00
6347;BME280;3206;42.666;23.600;2022-08-11T00:12:19;95318.63;;;19.93;100.00
6347;BME280;3206;42.666;23.600;2022-08-11T00:14:55;95308.16;;;19.95;100.00
6347;BME280;3206;42.666;23.600;2022-08-11T00:17:26;95310.50;;;19.93;100.00
6347;BME280;3206;42.666;23.600;2022-08-11T00:20:00;95308.16;;;19.92;100.00
6347;BME280;3206;42.666;23.600;2022-08-11T00:22:28;95308.19;;;19.88;100.00
6347;BME280;3206;42.666;23.600;2022-08-11T00:24:56;95303.94;;;19.80;100.00
6347;BME280;3206;42.666;23.600;2022-08-11T00:27:31;95311.31;;;19.80;100.00
6347;BME280;3206;42.666;23.600;2022-08-11T00:30:00;95314.06;;;19.69;100.00
6347;BME280;3206;42.666;23.600;2022-08-11T00:32:27;95311.75;;;19.64;100.00
6347;BME280;3206;42.666;23.600;2022-08-11T00:34:56;95318.34;;;19.60;100.00
6347;BME280;3206;42.666;23.600;2022-08-11T00:37:23;95307.13;;;19.58;100.00
6347;BME280;3206;42.666;23.600;2022-08-11T00:39:54;95313.69;;;19.60;100.00
6347;BME280;3206;42.666;23.600;2022-08-11T00:42:28;95309.84;;;19.54;100.00
6347;BME280;3206;42.666;23.600;2022-08-11T00:45:09;95308.31;;;19.43;100.00
6347;BME280;3206;42.666;23.600;2022-08-11T00:47:47;95313.38;;;19.37;100.00
6347;BME280;3206;42.666;23.600;2022-08-11T00:50:25;95312.59;;;19.33;100.00
6347;BME280;3206;42.666;23.600;2022-08-11T00:53:11;95313.78;;;19.22;100.00
6347;BME280;3206;42.666;23.600;2022-08-11T00:56:16;95310.66;;;19.27;100.00
6347;BME280;3206;42.666;23.600;2022-08-11T00:59:25;95313.75;;;19.18;100.00
6347;BME280;3206;42.666;23.600;2022-08-11T01:02:11;95308.34;;;19.11;100.00
6347;BME280;3206;42.666;23.600;2022-08-11T01:05:00;95306.81;;;19.03;100.00
6347;BME280;3206;42.666;23.600;2022-08-11T01:11:01;95302.53;;;19.09;100.00
6347;BME280;3206;42.666;23.600;2022-08-11T01:13:58;95308.34;;;19.04;100.00
6347;BME280;3206;42.666;23.600;2022-08-11T01:20:06;95287.84;;;18.86;100.00
6347;BME280;3206;42.666;23.600;2022-08-11T01:23:18;95292.13;;;18.80;100.00
6347;BME280;3206;42.666;23.600;2022-08-11T01:31:56;95285.13;;;18.69;100.00
6347;BME280;3206;42.666;23.600;2022-08-11T01:38:15;95287.47;;;18.60;100.00
6347;BME280;3206;42.666;23.600;2022-08-11T01:41:21;95287.44;;;18.56;100.00
6347;BME280;3206;42.666;23.600;2022-08-11T01:47:13;95280.41;;;18.17;100.00
6347;BME280;3206;42.666;23.600;2022-08-11T01:50:12;95276.13;;;18.09;100.00
6347;BME280;3206;42.666;23.600;2022-08-11T01:52:48;95287.28;;;17.97;100.00
6347;BME280;3206;42.666;23.600;2022-08-11T01:55:27;95287.28;;;17.97;100.00
6347;BME280;3206;42.666;23.600;2022-08-11T01:58:04;95279.63;;;18.06;100.00
6347;BME280;3206;42.666;23.600;2022-08-11T02:00:39;95285.78;;;18.06;100.00
6347;BME280;3206;42.666;23.600;2022-08-11T02:03:17;95284.22;;;18.02;100.00
6347;BME280;3206;42.666;23.600;2022-08-11T02:05:56;95284.25;;;18.09;100.00
6347;BME280;3206;42.666;23.600;2022-08-11T02:08:41;95288.09;;;18.04;100.00
6347;BME280;3206;42.666;23.600;2022-08-11T02:11:21;95291.94;;;18.00;100.00
6347;BME280;3206;42.666;23.600;2022-08-11T02:14:12;95282.66;;;18.01;100.00
6347;BME280;3206;42.666;23.600;2022-08-11T02:16:54;95285.78;;;18.10;100.00
6347;BME280;3206;42.666;23.600;2022-08-11T02:19:33;95287.66;;;17.95;100.00
6347;BME280;3206;42.666;23.600;2022-08-11T02:22:27;95288.03;;;17.87;100.00
6347;BME280;3206;42.666;23.600;2022-08-11T02:25:20;95281.84;;;17.86;100.00
6347;BME280;3206;42.666;23.600;2022-08-11T02:27:58;95283.81;;;17.93;100.00
6347;BME280;3206;42.666;23.600;2022-08-11T02:30:31;95280.69;;;17.84;100.00
6347;BME280;3206;42.666;23.600;2022-08-11T02:33:20;95280.31;;;17.92;100.00
6347;BME280;3206;42.666;23.600;2022-08-11T02:35:57;95278.06;;;18.05;100.00
6347;BME280;3206;42.666;23.600;2022-08-11T02:38:30;95275.38;;;18.05;100.00
6347;BME280;3206;42.666;23.600;2022-08-11T02:41:04;95271.06;;;17.97;100.00
6347;BME280;3206;42.666;23.600;2022-08-11T02:44:08;95266.44;;;17.94;100.00
6347;BME280;3206;42.666;23.600;2022-08-11T02:46:46;95265.66;;;17.93;100.00
6347;BME280;3206;42.666;23.600;2022-08-11T02:52:25;95273.16;;;17.42;100.00
6347;BME280;3206;42.666;23.600;2022-08-11T02:55:09;95282.16;;;17.67;100.00
6347;BME280;3206;42.666;23.600;2022-08-11T02:57:42;95276.91;;;17.27;100.00
6347;BME280;3206;42.666;23.600;2022-08-11T03:00:14;95289.38;;;17.39;100.00
6347;BME280;3206;42.666;23.600;2022-08-11T03:03:04;95288.63;;;17.49;100.00
6347;BME280;3206;42.666;23.600;2022-08-11T03:06:03;95286.31;;;17.51;100.00
6347;BME280;3206;42.666;23.600;2022-08-11T03:08:50;95287.88;;;17.52;100.00
6347;BME280;3206;42.666;23.600;2022-08-11T03:11:25;95288.25;;;17.54;100.00
6347;BME280;3206;42.666;23.600;2022-08-11T03:14:16;95290.19;;;17.50;100.00
6347;BME280;3206;42.666;23.600;2022-08-11T03:17:14;95286.25;;;17.37;100.00
6347;BME280;3206;42.666;23.600;2022-08-11T03:19:48;95287.72;;;17.31;100.00
6347;BME280;3206;42.666;23.600;2022-08-11T03:22:23;95285.34;;;17.15;100.00
6347;BME280;3206;42.666;23.600;2022-08-11T03:24:57;95270.88;;;16.91;100.00
6347;BME280;3206;42.666;23.600;2022-08-11T03:27:38;95286.75;;;16.99;100.00
6347;BME280;3206;42.666;23.600;2022-08-11T03:30:12;95281.00;;;17.01;100.00
6347;BME280;3206;42.666;23.600;2022-08-11T03:32:52;95277.53;;;17.03;100.00
6347;BME280;3206;42.666;23.600;2022-08-11T03:35:45;95275.22;;;17.02;100.00
6347;BME280;3206;42.666;23.600;2022-08-11T03:38:21;95281.22;;;16.78;100.00
6347;BME280;3206;42.666;23.600;2022-08-11T03:41:03;95282.47;;;16.91;100.00
6347;BME280;3206;42.666;23.600;2022-08-11T03:43:56;95284.44;;;17.01;100.00
6347;BME280;3206;42.666;23.600;2022-08-11T03:46:37;95270.81;;;16.80;100.00
6347;BME280;3206;42.666;23.600;2022-08-11T03:49:27;95283.63;;;16.90;100.00
6347;BME280;3206;42.666;23.600;2022-08-11T03:52:06;95288.69;;;17.02;100.00
6347;BME280;3206;42.666;23.600;2022-08-11T03:54:42;95282.56;;;17.05;100.00
6347;BME280;3206;42.666;23.600;2022-08-11T04:00:37;95285.72;;;17.21;100.00
6347;BME280;3206;42.666;23.600;2022-08-11T04:03:43;95275.34;;;17.23;100.00
6347;BME280;3206;42.666;23.600;2022-08-11T04:06:44;95290.75;;;17.19;100.00
6347;BME280;3206;42.666;23.600;2022-08-11T04:12:38;95279.16;;;17.15;100.00
6347;BME280;3206;42.666;23.600;2022-08-11T04:15:58;95284.56;;;17.18;100.00
6347;BME280;3206;42.666;23.600;2022-08-11T04:19:06;95288.78;;;17.16;100.00
6347;BME280;3206;42.666;23.600;2022-08-11T04:25:08;95299.88;;;17.01;100.00
6347;BME280;3206;42.666;23.600;2022-08-11T04:27:59;95298.44;;;17.17;100.00
6347;BME280;3206;42.666;23.600;2022-08-11T04:30:45;95295.44;;;17.29;100.00
6347;BME280;3206;42.666;23.600;2022-08-11T04:33:48;95293.53;;;17.33;100.00
6347;BME280;3206;42.666;23.600;2022-08-11T04:36:46;95297.03;;;17.37;100.00
6347;BME280;3206;42.666;23.600;2022-08-11T04:39:46;95296.28;;;17.36;100.00
6347;BME280;3206;42.666;23.600;2022-08-11T04:42:57;95295.91;;;17.41;100.00
6347;BME280;3206;42.666;23.600;2022-08-11T04:49:17;95306.34;;;17.43;100.00
6347;BME280;3206;42.666;23.600;2022-08-11T04:55:37;95307.16;;;17.54;100.00
6347;BME280;3206;42.666;23.600;2022-08-11T04:58:46;95297.94;;;17.55;100.00
6347;BME280;3206;42.666;23.600;2022-08-11T05:01:39;95306.91;;;17.73;100.00
6347;BME280;3206;42.666;23.600;2022-08-11T05:13:45;95305.91;;;18.26;100.00
6347;BME280;3206;42.666;23.600;2022-08-11T05:16:42;95307.50;;;18.31;100.00
6347;BME280;3206;42.666;23.600;2022-08-11T05:19:31;95304.81;;;18.45;100.00
6347;BME280;3206;42.666;23.600;2022-08-11T05:22:18;95292.84;;;18.35;100.00
6347;BME280;3206;42.666;23.600;2022-08-11T05:25:06;95309.13;;;18.74;100.00
6347;BME280;3206;42.666;23.600;2022-08-11T05:27:55;95302.16;;;18.73;100.00
6347;BME280;3206;42.666;23.600;2022-08-11T05:30:45;95310.66;;;19.02;100.00
6347;BME280;3206;42.666;23.600;2022-08-11T05:33:33;95312.59;;;19.37;100.00
6347;BME280;3206;42.666;23.600;2022-08-11T05:36:26;95322.53;;;20.68;100.00
6347;BME280;3206;42.666;23.600;2022-08-11T05:38:57;95318.72;;;20.58;100.00
6347;BME280;3206;42.666;23.600;2022-08-11T05:41:42;95326.34;;;21.28;100.00
6347;BME280;3206;42.666;23.600;2022-08-11T05:44:27;95320.88;;;21.75;100.00
6347;BME280;3206;42.666;23.600;2022-08-11T05:47:22;95326.47;;;21.54;100.00
6347;BME280;3206;42.666;23.600;2022-08-11T05:50:08;95317.91;;;21.19;100.00
6347;BME280;3206;42.666;23.600;2022-08-11T05:52:53;95324.94;;;21.13;100.00
6347;BME280;3206;42.666;23.600;2022-08-11T05:55:39;95319.38;;;21.27;100.00
6347;BME280;3206;42.666;23.600;2022-08-11T05:58:24;95319.09;;;21.18;100.00
6347;BME280;3206;42.666;23.600;2022-08-11T06:00:52;95310.88;;;21.21;100.00
6347;BME280;3206;42.666;23.600;2022-08-11T06:03:24;95310.69;;;20.99;100.00
6347;BME280;3206;42.666;23.600;2022-08-11T06:05:53;95313.31;;;21.09;100.00
6347;BME280;3206;42.666;23.600;2022-08-11T06:08:27;95309.13;;;21.01;100.00
6347;BME280;3206;42.666;23.600;2022-08-11T06:10:59;95310.84;;;20.78;100.00
6347;BME280;3206;42.666;23.600;2022-08-11T06:13:26;95314.03;;;20.62;100.00
6347;BME280;3206;42.666;23.600;2022-08-11T06:15:53;95308.94;;;20.71;100.00
6347;BME280;3206;42.666;23.600;2022-08-11T06:18:23;95300.72;;;20.78;100.00
6347;BME280;3206;42.666;23.600;2022-08-11T06:20:51;95301.44;;;20.93;100.00
6347;BME280;3206;42.666;23.600;2022-08-11T06:23:20;95303.72;;;21.01;100.00
6347;BME280;3206;42.666;23.600;2022-08-11T06:25:50;95308.63;;;21.13;100.00
6347;BME280;3206;42.666;23.600;2022-08-11T06:28:18;95306.66;;;21.17;100.00
6347;BME280;3206;42.666;23.600;2022-08-11T06:30:47;95315.03;;;21.33;100.00
6347;BME280;3206;42.666;23.600;2022-08-11T06:33:18;95312.00;;;21.27;100.00
6347;BME280;3206;42.666;23.600;2022-08-11T06:35:56;95309.72;;;21.63;100.00
6347;BME280;3206;42.666;23.600;2022-08-11T06:38:37;95283.09;;;21.44;100.00
6347;BME280;3206;42.666;23.600;2022-08-11T06:41:11;95285.00;;;21.47;100.00
6347;BME280;3206;42.666;23.600;2022-08-11T06:44:17;95308.50;;;21.71;100.00
6347;BME280;3206;42.666;23.600;2022-08-11T06:46:49;95303.81;;;21.71;100.00
6347;BME280;3206;42.666;23.600;2022-08-11T06:49:18;95310.94;;;21.95;100.00
6347;BME280;3206;42.666;23.600;2022-08-11T06:52:05;95302.22;;;22.07;100.00
6347;BME280;3206;42.666;23.600;2022-08-11T06:54:35;95312.88;;;22.25;100.00
6347;BME280;3206;42.666;23.600;2022-08-11T06:57:06;95319.31;;;22.41;100.00
6347;BME280;3206;42.666;23.600;2022-08-11T06:59:52;95317.41;;;22.65;100.00
6347;BME280;3206;42.666;23.600;2022-08-11T07:02:51;95308.84;;;22.93;100.00
6347;BME280;3206;42.666;23.600;2022-08-11T07:05:22;95306.59;;;23.10;100.00
6347;BME280;3206;42.666;23.600;2022-08-11T07:08:33;95311.84;;;23.24;100.00
6347;BME280;3206;42.666;23.600;2022-08-11T07:21:27;95309.81;;;23.51;100.00
6347;BME280;3206;42.666;23.600;2022-08-11T07:24:16;95316.03;;;23.52;100.00
6347;BME280;3206;42.666;23.600;2022-08-11T07:27:05;95300.22;;;23.43;100.00
6347;BME280;3206;42.666;23.600;2022-08-11T07:29:53;95316.66;;;23.40;100.00
6347;BME280;3206;42.666;23.600;2022-08-11T07:32:26;95303.84;;;23.60;100.00
6347;BME280;3206;42.666;23.600;2022-08-11T07:34:58;95313.66;;;23.54;100.00
6347;BME280;3206;42.666;23.600;2022-08-11T07:37:29;95309.53;;;23.88;100.00
6347;BME280;3206;42.666;23.600;2022-08-11T07:39:59;95315.94;;;23.78;100.00
6347;BME280;3206;42.666;23.600;2022-08-11T07:42:29;95311.59;;;23.84;100.00
6347;BME280;3206;42.666;23.600;2022-08-11T07:44:58;95317.88;;;24.01;100.00
6347;BME280;3206;42.666;23.600;2022-08-11T07:47:45;95309.69;;;24.01;100.00
6347;BME280;3206;42.666;23.600;2022-08-11T07:50:29;95308.09;;;24.03;100.00
6347;BME280;3206;42.666;23.600;2022-08-11T07:53:14;95304.50;;;24.26;100.00
6347;BME280;3206;42.666;23.600;2022-08-11T07:55:47;95272.38;;;24.33;100.00
6347;BME280;3206;42.666;23.600;2022-08-11T07:58:14;95298.06;;;24.71;100.00
6347;BME280;3206;42.666;23.600;2022-08-11T08:00:59;95293.38;;;25.03;100.00
6347;BME280;3206;42.666;23.600;2022-08-11T08:03:43;95298.09;;;25.03;100.00
6347;BME280;3206;42.666;23.600;2022-08-11T08:06:31;95293.91;;;25.14;100.00
6347;BME280;3206;42.666;23.600;2022-08-11T08:09:17;95298.63;;;25.46;100.00
6347;BME280;3206;42.666;23.600;2022-08-11T08:12:04;95303.22;;;25.65;100.00
6347;BME280;3206;42.666;23.600;2022-08-11T08:14:50;95288.78;;;25.77;100.00
6347;BME280;3206;42.666;23.600;2022-08-11T08:17:37;95300.94;;;25.76;100.00
6347;BME280;3206;42.666;23.600;2022-08-11T08:20:18;95295.50;;;26.04;100.00
6347;BME280;3206;42.666;23.600;2022-08-11T08:22:47;95297.09;;;26.30;100.00
6347;BME280;3206;42.666;23.600;2022-08-11T08:25:17;95299.94;;;26.27;100.00
6347;BME280;3206;42.666;23.600;2022-08-11T08:27:46;95290.78;;;26.46;100.00
6347;BME280;3206;42.666;23.600;2022-08-11T08:30:15;95292.31;;;26.47;100.00
6347;BME280;3206;42.666;23.600;2022-08-11T08:33:00;95284.56;;;26.58;100.00
6347;BME280;3206;42.666;23.600;2022-08-11T08:35:28;95289.28;;;26.70;100.00
6347;BME280;3206;42.666;23.600;2022-08-11T08:37:56;95283.16;;;26.25;100.00
6347;BME280;3206;42.666;23.600;2022-08-11T08:40:24;95284.22;;;26.56;100.00
6347;BME280;3206;42.666;23.600;2022-08-11T08:42:55;95277.00;;;27.24;100.00
6347;BME280;3206;42.666;23.600;2022-08-11T08:45:23;95278.56;;;28.14;99.04
6347;BME280;3206;42.666;23.600;2022-08-11T08:47:58;95284.56;;;28.00;96.64
6347;BME280;3206;42.666;23.600;2022-08-11T08:50:28;95274.63;;;30.00;77.60
6347;BME280;3206;42.666;23.600;2022-08-11T08:53:10;95277.09;;;29.71;76.11
6347;BME280;3206;42.666;23.600;2022-08-11T08:55:38;95278.50;;;29.18;78.60
6347;BME280;3206;42.666;23.600;2022-08-11T08:58:08;95273.97;;;28.33;85.96
6347;BME280;3206;42.666;23.600;2022-08-11T09:00:42;95278.44;;;27.96;88.46
6347;BME280;3206;42.666;23.600;2022-08-11T09:03:10;95276.41;;;28.09;90.79
6347;BME280;3206;42.666;23.600;2022-08-11T09:05:38;95269.63;;;29.23;75.80
6347;BME280;3206;42.666;23.600;2022-08-11T09:08:06;95273.56;;;29.97;68.73
6347;BME280;3206;42.666;23.600;2022-08-11T09:10:34;95276.06;;;31.46;62.22
6347;BME280;3206;42.666;23.600;2022-08-11T09:13:03;95263.69;;;33.34;55.20
6347;BME280;3206;42.666;23.600;2022-08-11T09:15:37;95258.69;;;33.57;52.80
6347;BME280;3206;42.666;23.600;2022-08-11T09:18:04;95261.03;;;34.50;50.28
6347;BME280;3206;42.666;23.600;2022-08-11T09:20:34;95246.72;;;33.46;50.85
6347;BME280;3206;42.666;23.600;2022-08-11T09:23:05;95244.78;;;32.54;51.93
6347;BME280;3206;42.666;23.600;2022-08-11T09:25:52;95246.91;;;30.90;56.29
6347;BME280;3206;42.666;23.600;2022-08-11T09:28:38;95241.16;;;30.70;58.93
6347;BME280;3206;42.666;23.600;2022-08-11T09:31:09;95246.16;;;31.68;56.55
6347;BME280;3206;42.666;23.600;2022-08-11T09:33:37;95251.44;;;32.19;53.64
6347;BME280;3206;42.666;23.600;2022-08-11T09:36:06;95249.22;;;32.08;53.92
6347;BME280;3206;42.666;23.600;2022-08-11T09:38:47;95243.09;;;31.43;56.18
6347;BME280;3206;42.666;23.600;2022-08-11T09:41:33;95245.56;;;31.18;57.38
6347;BME280;3206;42.666;23.600;2022-08-11T09:44:01;95242.38;;;31.80;55.85
6347;BME280;3206;42.666;23.600;2022-08-11T09:46:48;95235.28;;;33.04;52.18
6347;BME280;3206;42.666;23.600;2022-08-11T09:49:18;95223.03;;;33.85;49.77
6347;BME280;3206;42.666;23.600;2022-08-11T09:51:46;95241.63;;;33.25;50.53
6347;BME280;3206;42.666;23.600;2022-08-11T09:54:14;95185.78;;;31.52;53.29
6347;BME280;3206;42.666;23.600;2022-08-11T09:56:42;95228.13;;;31.58;55.71
6347;BME280;3206;42.666;23.600;2022-08-11T09:59:27;95223.56;;;33.29;50.93
6347;BME280;3206;42.666;23.600;2022-08-11T10:01:58;95222.44;;;32.87;50.60
6347;BME280;3206;42.666;23.600;2022-08-11T10:04:30;95220.53;;;32.78;51.59
6347;BME280;3206;42.666;23.600;2022-08-11T10:06:59;95219.94;;;30.85;55.37
6347;BME280;3206;42.666;23.600;2022-08-11T10:09:28;95213.91;;;30.63;56.81
6347;BME280;3206;42.666;23.600;2022-08-11T10:12:00;95211.41;;;32.43;54.50
6347;BME280;3206;42.666;23.600;2022-08-11T10:14:29;95198.84;;;33.85;49.55
6347;BME280;3206;42.666;23.600;2022-08-11T10:17:18;95209.38;;;32.73;49.81
6347;BME280;3206;42.666;23.600;2022-08-11T10:19:47;95203.91;;;33.47;50.83
6347;BME280;3206;42.666;23.600;2022-08-11T10:22:15;95180.63;;;34.86;47.33
6347;BME280;3206;42.666;23.600;2022-08-11T10:25:01;95206.84;;;36.49;41.68
6347;BME280;3206;42.666;23.600;2022-08-11T10:27:47;95200.25;;;36.52;42.67
6347;BME280;3206;42.666;23.600;2022-08-11T10:30:23;95200.53;;;37.88;40.77
6347;BME280;3206;42.666;23.600;2022-08-11T10:35:54;95208.13;;;37.93;37.74
6347;BME280;3206;42.666;23.600;2022-08-11T10:38:21;95203.47;;;39.41;36.55
6347;BME280;3206;42.666;23.600;2022-08-11T10:40:48;95197.53;;;41.10;35.01
6347;BME280;3206;42.666;23.600;2022-08-11T10:43:37;95188.34;;;40.15;34.56
6347;BME280;3206;42.666;23.600;2022-08-11T10:46:06;95185.50;;;39.55;35.75
6347;BME280;3206;42.666;23.600;2022-08-11T10:48:54;95189.22;;;40.23;34.53
6347;BME280;3206;42.666;23.600;2022-08-11T10:51:22;95196.97;;;40.86;33.80
6347;BME280;3206;42.666;23.600;2022-08-11T10:54:07;95182.47;;;39.05;35.50
6347;BME280;3206;42.666;23.600;2022-08-11T10:56:52;95192.88;;;37.21;37.06
6347;BME280;3206;42.666;23.600;2022-08-11T10:59:37;95183.78;;;36.38;38.88
6347;BME280;3206;42.666;23.600;2022-08-11T11:02:04;95173.13;;;34.67;41.40
6347;BME280;3206;42.666;23.600;2022-08-11T11:04:46;95185.25;;;33.87;43.91
6347;BME280;3206;42.666;23.600;2022-08-11T11:07:21;95187.53;;;32.60;46.72
6347;BME280;3206;42.666;23.600;2022-08-11T11:09:52;95191.41;;;31.96;48.85
6347;BME280;3206;42.666;23.600;2022-08-11T11:12:24;95190.09;;;32.78;48.94
6347;BME280;3206;42.666;23.600;2022-08-11T11:16:41;95181.78;;;36.38;40.69
6347;BME280;3206;42.666;23.600;2022-08-11T11:19:37;95189.06;;;38.43;37.94
6347;BME280;3206;42.666;23.600;2022-08-11T11:22:05;95195.59;;;38.16;38.86
6347;BME280;3206;42.666;23.600;2022-08-11T11:24:54;95200.28;;;34.52;44.54
6347;BME280;3206;42.666;23.600;2022-08-11T11:27:29;95193.66;;;34.18;45.66
6347;BME280;3206;42.666;23.600;2022-08-11T11:30:03;95198.88;;;33.11;46.72
6347;BME280;3206;42.666;23.600;2022-08-11T11:32:40;95200.66;;;31.93;52.99
6347;BME280;3206;42.666;23.600;2022-08-11T11:35:17;95194.31;;;30.61;61.98
6347;BME280;3206;42.666;23.600;2022-08-11T11:37:49;95195.75;;;30.80;67.20
6347;BME280;3206;42.666;23.600;2022-08-11T11:40:19;95194.50;;;31.36;79.28
6347;BME280;3206;42.666;23.600;2022-08-11T11:42:49;95184.53;;;34.12;63.09
6347;BME280;3206;42.666;23.600;2022-08-11T11:45:17;95191.56;;;35.43;50.76
6347;BME280;3206;42.666;23.600;2022-08-11T11:47:47;95183.81;;;36.82;47.59
6347;BME280;3206;42.666;23.600;2022-08-11T11:50:21;95178.53;;;38.19;43.67
6347;BME280;3206;42.666;23.600;2022-08-11T11:52:49;95179.53;;;37.76;42.24
6347;BME280;3206;42.666;23.600;2022-08-11T11:55:16;95178.69;;;38.43;39.67
6347;BME280;3206;42.666;23.600;2022-08-11T11:57:43;95186.56;;;38.74;38.19
6347;BME280;3206;42.666;23.600;2022-08-11T12:00:28;95182.47;;;39.05;36.46
6347;BME280;3206;42.666;23.600;2022-08-11T12:03:16;95184.69;;;40.20;36.68
6347;BME280;3206;42.666;23.600;2022-08-11T12:05:45;95187.81;;;40.67;36.12
6347;BME280;3206;42.666;23.600;2022-08-11T12:08:13;95178.63;;;40.53;35.99
6347;BME280;3206;42.666;23.600;2022-08-11T12:10:43;95171.91;;;39.88;37.57
6347;BME280;3206;42.666;23.600;2022-08-11T12:13:12;95167.13;;;41.14;34.87
6347;BME280;3206;42.666;23.600;2022-08-11T12:15:57;95170.25;;;41.11;33.65
6347;BME280;3206;42.666;23.600;2022-08-11T12:18:31;95168.69;;;40.52;33.41
6347;BME280;3206;42.666;23.600;2022-08-11T12:21:00;95169.41;;;40.71;32.33
6347;BME280;3206;42.666;23.600;2022-08-11T12:23:28;95149.03;;;41.41;32.45
6347;BME280;3206;42.666;23.600;2022-08-11T12:26:14;95158.44;;;41.70;31.07
6347;BME280;3206;42.666;23.600;2022-08-11T12:28:59;95143.22;;;41.52;31.07
6347;BME280;3206;42.666;23.600;2022-08-11T12:31:28;95124.09;;;40.54;32.05
6347;BME280;3206;42.666;23.600;2022-08-11T12:34:01;95140.34;;;39.88;31.76
6347;BME280;3206;42.666;23.600;2022-08-11T12:36:29;95132.00;;;41.52;29.82
6347;BME280;3206;42.666;23.600;2022-08-11T12:38:59;95153.84;;;42.06;29.05
6347;BME280;3206;42.666;23.600;2022-08-11T12:41:26;95152.25;;;42.84;28.12
6347;BME280;3206;42.666;23.600;2022-08-11T12:44:11;95132.97;;;42.68;28.12
6347;BME280;3206;42.666;23.600;2022-08-11T12:47:00;95147.81;;;43.17;27.80
6347;BME280;3206;42.666;23.600;2022-08-11T12:49:31;95150.13;;;43.82;26.68
6347;BME280;3206;42.666;23.600;2022-08-11T12:52:21;95152.72;;;43.24;27.47
6347;BME280;3206;42.666;23.600;2022-08-11T12:54:54;95157.69;;;40.04;30.03
6347;BME280;3206;42.666;23.600;2022-08-11T12:57:28;95148.16;;;38.16;34.36
6347;BME280;3206;42.666;23.600;2022-08-11T13:00:13;95141.53;;;39.55;33.64
6347;BME280;3206;42.666;23.600;2022-08-11T13:02:59;95146.84;;;38.22;35.08
6347;BME280;3206;42.666;23.600;2022-08-11T13:05:46;95135.09;;;38.29;35.32
6347;BME280;3206;42.666;23.600;2022-08-11T13:08:14;95132.94;;;38.76;34.31
6347;BME280;3206;42.666;23.600;2022-08-11T13:10:42;95138.81;;;39.26;33.25
6347;BME280;3206;42.666;23.600;2022-08-11T13:13:27;95142.19;;;39.61;31.96
6347;BME280;3206;42.666;23.600;2022-08-11T13:15:55;95137.03;;;40.57;31.62
6347;BME280;3206;42.666;23.600;2022-08-11T13:18:22;95135.19;;;40.28;32.07
6347;BME280;3206;42.666;23.600;2022-08-11T13:20:54;95141.38;;;41.68;30.53
6347;BME280;3206;42.666;23.600;2022-08-11T13:23:23;95130.88;;;40.90;30.74
6347;BME280;3206;42.666;23.600;2022-08-11T13:25:51;95131.78;;;41.37;29.88
6347;BME280;3206;42.666;23.600;2022-08-11T13:28:20;95102.00;;;41.21;29.58
6347;BME280;3206;42.666;23.600;2022-08-11T13:30:48;95125.31;;;40.40;30.18
6347;BME280;3206;42.666;23.600;2022-08-11T13:33:34;95124.06;;;38.48;32.75
6347;BME280;3206;42.666;23.600;2022-08-11T13:36:03;95118.25;;;39.84;31.47
6347;BME280;3206;42.666;23.600;2022-08-11T13:38:31;95116.91;;;41.29;29.96
6347;BME280;3206;42.666;23.600;2022-08-11T13:40:58;95111.25;;;41.81;29.89
6347;BME280;3206;42.666;23.600;2022-08-11T13:43:26;95107.31;;;42.10;29.98
6347;BME280;3206;42.666;23.600;2022-08-11T13:45:53;95116.25;;;41.36;31.11
6347;BME280;3206;42.666;23.600;2022-08-11T13:48:41;95112.75;;;38.29;33.25
6347;BME280;3206;42.666;23.600;2022-08-11T13:51:09;95118.50;;;36.72;35.54
6347;BME280;3206;42.666;23.600;2022-08-11T13:53:54;95111.53;;;37.33;34.84
6347;BME280;3206;42.666;23.600;2022-08-11T13:56:22;95113.50;;;38.30;33.75
6347;BME280;3206;42.666;23.600;2022-08-11T13:58:50;95118.25;;;38.99;33.32
6347;BME280;3206;42.666;23.600;2022-08-11T14:01:19;95106.44;;;39.54;32.51
6347;BME280;3206;42.666;23.600;2022-08-11T14:03:47;95113.13;;;40.06;32.21
6347;BME280;3206;42.666;23.600;2022-08-11T14:06:16;95115.28;;;40.63;31.05
6347;BME280;3206;42.666;23.600;2022-08-11T14:08:44;95085.06;;;41.14;30.73
6347;BME280;3206;42.666;23.600;2022-08-11T14:11:12;95110.06;;;40.99;30.50
6347;BME280;3206;42.666;23.600;2022-08-11T14:13:59;95114.88;;;41.89;29.45
6347;BME280;3206;42.666;23.600;2022-08-11T14:16:30;95110.13;;;41.97;29.84
6347;BME280;3206;42.666;23.600;2022-08-11T14:19:01;95107.16;;;42.36;28.82
6347;BME280;3206;42.666;23.600;2022-08-11T14:21:34;95107.16;;;42.97;27.75
6347;BME280;3206;42.666;23.600;2022-08-11T14:24:20;95110.69;;;42.49;28.05
6347;BME280;3206;42.666;23.600;2022-08-11T14:26:48;95113.56;;;42.77;27.81
6347;BME280;3206;42.666;23.600;2022-08-11T14:29:17;95106.03;;;43.84;26.53
6347;BME280;3206;42.666;23.600;2022-08-11T14:31:47;95107.91;;;43.89;26.59
6347;BME280;3206;42.666;23.600;2022-08-11T14:34:17;95109.47;;;43.27;26.46
6347;BME280;3206;42.666;23.600;2022-08-11T14:36:49;95108.72;;;43.62;26.19
6347;BME280;3206;42.666;23.600;2022-08-11T14:39:18;95098.97;;;44.13;26.20
6347;BME280;3206;42.666;23.600;2022-08-11T14:41:48;95100.19;;;43.90;25.98
6347;BME280;3206;42.666;23.600;2022-08-11T14:44:35;95100.97;;;43.55;26.77
6347;BME280;3206;42.666;23.600;2022-08-11T14:47:21;95108.09;;;43.56;25.96
6347;BME280;3206;42.666;23.600;2022-08-11T14:49:49;95101.63;;;44.19;25.93
6347;BME280;3206;42.666;23.600;2022-08-11T14:52:18;95105.47;;;44.44;25.18
6347;BME280;3206;42.666;23.600;2022-08-11T14:54:47;95090.19;;;43.74;26.11
6347;BME280;3206;42.666;23.600;2022-08-11T14:57:35;95099.03;;;43.14;26.54
6347;BME280;3206;42.666;23.600;2022-08-11T15:00:05;95081.13;;;42.76;26.93
6347;BME280;3206;42.666;23.600;2022-08-11T15:02:36;95095.34;;;40.35;29.40
6347;BME280;3206;42.666;23.600;2022-08-11T15:05:21;95100.94;;;38.18;31.74
6347;BME280;3206;42.666;23.600;2022-08-11T15:07:51;95102.09;;;36.57;33.88